sensor_id;sensor_type;location;lat;lon;timestamp;pressure;altitude;pressure_sealevel;temperature;humidity
48041;BME280;33815;48.386;11.738;2023-04-01T00:01:00;95255.56;;;7.05;96.64
48041;BME280;33815;48.386;11.738;2023-04-01T00:03:26;95233.38;;;7.02;97.59
48041;BME280;33815;48.386;11.738;2023-04-01T00:05:53;95255.56;;;6.97;97.52
48041;BME280;33815;48.386;11.738;2023-04-01T00:08:18;95246.00;;;6.81;97.91
48041;BME280;33815;48.386;11.738;2023-04-01T00:10:44;95227.88;;;6.81;97.76
48041;BME280;33815;48.386;11.738;2023-04-01T00:13:09;95206.50;;;6.71;97.85
48041;BME280;33815;48.386;11.738;2023-04-01T00:15:35;95250.34;;;6.89;98.13
48041;BME280;33815;48.386;11.738;2023-04-01T00:18:00;95237.25;;;6.82;98.16
48041;BME280;33815;48.386;11.738;2023-04-01T00:20:26;95259.56;;;6.83;99.01
48041;BME280;33815;48.386;11.738;2023-04-01T00:22:51;95244.84;;;6.67;99.08
48041;BME280;33815;48.386;11.738;2023-04-01T00:25:17;95261.00;;;6.69;99.60
48041;BME280;33815;48.386;11.738;2023-04-01T00:27:43;95247.06;;;6.54;99.82
48041;BME280;33815;48.386;11.738;2023-04-01T00:30:09;95269.41;;;6.63;100.00
48041;BME280;33815;48.386;11.738;2023-04-01T00:32:34;95259.69;;;6.48;100.00
48041;BME280;33815;48.386;11.738;2023-04-01T00:35:00;95235.84;;;6.37;100.00
48041;BME280;33815;48.386;11.738;2023-04-01T00:37:26;95219.16;;;6.23;100.00
48041;BME280;33815;48.386;11.738;2023-04-01T00:39:52;95260.28;;;6.42;100.00
48041;BME280;33815;48.386;11.738;2023-04-01T00:42:17;95271.19;;;6.54;100.00
48041;BME280;33815;48.386;11.738;2023-04-01T00:44:45;95258.88;;;6.56;100.00
48041;BME280;33815;48.386;11.738;2023-04-01T00:47:13;95241.75;;;6.63;99.83
48041;BME280;33815;48.386;11.738;2023-04-01T00:49:40;95270.38;;;6.62;100.00
48041;BME280;33815;48.386;11.738;2023-04-01T00:52:08;95267.00;;;6.61;100.00
48041;BME280;33815;48.386;11.738;2023-04-01T00:54:36;95218.44;;;6.47;99.70
48041;BME280;33815;48.386;11.738;2023-04-01T00:57:08;95258.44;;;6.61;100.00
48041;BME280;33815;48.386;11.738;2023-04-01T00:59:39;95263.28;;;6.64;100.00
48041;BME280;33815;48.386;11.738;2023-04-01T01:02:08;95258.25;;;6.62;100.00
48041;BME280;33815;48.386;11.738;2023-04-01T01:04:35;95221.19;;;6.45;100.00
48041;BME280;33815;48.386;11.738;2023-04-01T01:12:34;95247.91;;;6.62;100.00
48041;BME280;33815;48.386;11.738;2023-04-01T01:20:53;95249.81;;;6.60;100.00
48041;BME280;33815;48.386;11.738;2023-04-01T01:34:40;95241.44;;;6.66;100.00
48041;BME280;33815;48.386;11.738;2023-04-01T01:37:13;95197.16;;;6.27;100.00
48041;BME280;33815;48.386;11.738;2023-04-01T01:39:42;95241.41;;;6.50;100.00
48041;BME280;33815;48.386;11.738;2023-04-01T01:42:13;95244.47;;;6.45;100.00
48041;BME280;33815;48.386;11.738;2023-04-01T01:44:41;95239.44;;;6.52;100.00
48041;BME280;33815;48.386;11.738;2023-04-01T01:47:08;95226.00;;;6.40;100.00
48041;BME280;33815;48.386;11.738;2023-04-01T01:49:35;95228.78;;;6.47;100.00
48041;BME280;33815;48.386;11.738;2023-04-01T01:52:01;95227.78;;;6.48;100.00
48041;BME280;33815;48.386;11.738;2023-04-01T01:54:26;95228.09;;;6.45;100.00
48041;BME280;33815;48.386;11.738;2023-04-01T01:56:56;95215.28;;;6.27;100.00
48041;BME280;33815;48.386;11.738;2023-04-01T01:59:25;95230.53;;;6.46;100.00
48041;BME280;33815;48.386;11.738;2023-04-01T02:01:54;95228.47;;;6.50;100.00
48041;BME280;33815;48.386;11.738;2023-04-01T02:04:21;95224.78;;;6.61;100.00
48041;BME280;33815;48.386;11.738;2023-04-01T02:06:55;95222.63;;;6.56;100.00
48041;BME280;33815;48.386;11.738;2023-04-01T02:09:23;95214.06;;;6.56;100.00
48041;BME280;33815;48.386;11.738;2023-04-01T02:11:51;95224.59;;;6.62;100.00
48041;BME280;33815;48.386;11.738;2023-04-01T02:14:19;95224.44;;;6.56;100.00
48041;BME280;33815;48.386;11.738;2023-04-01T02:19:18;95229.41;;;6.49;100.00
48041;BME280;33815;48.386;11.738;2023-04-01T02:21:50;95236.53;;;6.47;100.00
48041;BME280;33815;48.386;11.738;2023-04-01T02:24:17;95210.47;;;6.40;100.00
48041;BME280;33815;48.386;11.738;2023-04-01T02:26:46;95219.38;;;6.38;100.00
48041;BME280;33815;48.386;11.738;2023-04-01T02:29:12;95244.88;;;6.32;100.00
48041;BME280;33815;48.386;11.738;2023-04-01T02:31:38;95251.38;;;6.37;100.00
48041;BME280;33815;48.386;11.738;2023-04-01T02:34:04;95235.00;;;6.28;100.00
48041;BME280;33815;48.386;11.738;2023-04-01T02:36:30;95231.59;;;6.19;100.00
48041;BME280;33815;48.386;11.738;2023-04-01T02:38:57;95244.25;;;6.30;100.00
48041;BME280;33815;48.386;11.738;2023-04-01T02:41:27;95239.56;;;6.26;100.00
48041;BME280;33815;48.386;11.738;2023-04-01T02:43:53;95251.34;;;6.28;100.00
48041;BME280;33815;48.386;11.738;2023-04-01T02:46:18;95243.75;;;6.27;100.00
48041;BME280;33815;48.386;11.738;2023-04-01T02:48:43;95224.28;;;6.06;100.00
48041;BME280;33815;48.386;11.738;2023-04-01T02:51:08;95259.41;;;6.25;100.00
48041;BME280;33815;48.386;11.738;2023-04-01T02:53:34;95255.25;;;6.32;100.00
48041;BME280;33815;48.386;11.738;2023-04-01T02:55:59;95217.16;;;6.08;100.00
48041;BME280;33815;48.386;11.738;2023-04-01T02:58:24;95221.88;;;6.21;100.00
48041;BME280;33815;48.386;11.738;2023-04-01T03:00:50;95268.56;;;6.46;100.00
48041;BME280;33815;48.386;11.738;2023-04-01T03:03:15;95261.56;;;6.38;100.00
48041;BME280;33815;48.386;11.738;2023-04-01T03:05:41;95269.50;;;6.37;100.00
48041;BME280;33815;48.386;11.738;2023-04-01T03:08:06;95259.38;;;6.17;100.00
48041;BME280;33815;48.386;11.738;2023-04-01T03:10:31;95238.63;;;6.00;100.00
48041;BME280;33815;48.386;11.738;2023-04-01T03:12:57;95257.78;;;6.16;100.00
48041;BME280;33815;48.386;11.738;2023-04-01T03:15:22;95265.19;;;6.11;100.00
48041;BME280;33815;48.386;11.738;2023-04-01T03:17:47;95269.25;;;6.13;100.00
48041;BME280;33815;48.386;11.738;2023-04-01T03:20:13;95273.91;;;6.10;100.00
48041;BME280;33815;48.386;11.738;2023-04-01T03:22:39;95272.59;;;6.06;100.00
48041;BME280;33815;48.386;11.738;2023-04-01T03:25:05;95231.25;;;5.79;100.00
48041;BME280;33815;48.386;11.738;2023-04-01T03:27:32;95272.94;;;6.11;100.00
48041;BME280;33815;48.386;11.738;2023-04-01T03:29:57;95285.59;;;6.22;100.00
48041;BME280;33815;48.386;11.738;2023-04-01T03:32:23;95285.28;;;6.25;100.00
48041;BME280;33815;48.386;11.738;2023-04-01T03:34:48;95289.00;;;6.23;100.00
48041;BME280;33815;48.386;11.738;2023-04-01T03:37:13;95283.69;;;6.24;100.00
48041;BME280;33815;48.386;11.738;2023-04-01T03:39:39;95286.25;;;6.16;100.00
48041;BME280;33815;48.386;11.738;2023-04-01T03:42:04;95288.31;;;6.12;100.00
48041;BME280;33815;48.386;11.738;2023-04-01T03:44:34;95300.41;;;6.04;100.00
48041;BME280;33815;48.386;11.738;2023-04-01T03:47:00;95289.28;;;6.11;100.00
48041;BME280;33815;48.386;11.738;2023-04-01T03:49:26;95296.22;;;6.11;100.00
48041;BME280;33815;48.386;11.738;2023-04-01T03:51:51;95295.38;;;6.02;100.00
48041;BME280;33815;48.386;11.738;2023-04-01T03:54:17;95287.19;;;5.89;100.00
48041;BME280;33815;48.386;11.738;2023-04-01T03:56:43;95301.56;;;6.09;100.00
48041;BME280;33815;48.386;11.738;2023-04-01T03:59:08;95299.09;;;5.81;100.00
48041;BME280;33815;48.386;11.738;2023-04-01T04:01:34;95266.06;;;5.67;100.00
48041;BME280;33815;48.386;11.738;2023-04-01T04:03:59;95319.03;;;5.89;100.00
48041;BME280;33815;48.386;11.738;2023-04-01T04:06:26;95316.78;;;5.94;100.00
48041;BME280;33815;48.386;11.738;2023-04-01T04:08:51;95305.50;;;5.95;100.00
48041;BME280;33815;48.386;11.738;2023-04-01T04:11:17;95311.28;;;5.89;100.00
48041;BME280;33815;48.386;11.738;2023-04-01T04:13:43;95314.88;;;5.96;100.00
48041;BME280;33815;48.386;11.738;2023-04-01T04:16:09;95299.38;;;5.96;100.00
48041;BME280;33815;48.386;11.738;2023-04-01T04:18:35;95326.63;;;6.09;100.00
48041;BME280;33815;48.386;11.738;2023-04-01T04:21:00;95306.28;;;5.96;100.00
48041;BME280;33815;48.386;11.738;2023-04-01T04:23:26;95304.97;;;5.92;100.00
48041;BME280;33815;48.386;11.738;2023-04-01T04:25:58;95324.06;;;5.91;100.00
48041;BME280;33815;48.386;11.738;2023-04-01T04:28:25;95316.41;;;5.81;100.00
48041;BME280;33815;48.386;11.738;2023-04-01T04:30:51;95276.28;;;5.51;100.00
48041;BME280;33815;48.386;11.738;2023-04-01T04:33:16;95322.41;;;5.63;100.00
48041;BME280;33815;48.386;11.738;2023-04-01T04:35:42;95302.41;;;5.65;100.00
48041;BME280;33815;48.386;11.738;2023-04-01T04:38:07;95286.78;;;5.49;100.00
48041;BME280;33815;48.386;11.738;2023-04-01T04:40:32;95288.16;;;5.61;100.00
48041;BME280;33815;48.386;11.738;2023-04-01T04:42:58;95252.41;;;5.30;100.00
48041;BME280;33815;48.386;11.738;2023-04-01T04:45:23;95294.94;;;5.62;100.00
48041;BME280;33815;48.386;11.738;2023-04-01T04:47:48;95312.50;;;5.77;100.00
48041;BME280;33815;48.386;11.738;2023-04-01T04:50:13;95316.09;;;5.84;100.00
48041;BME280;33815;48.386;11.738;2023-04-01T04:52:39;95324.72;;;5.93;100.00
48041;BME280;33815;48.386;11.738;2023-04-01T04:55:05;95312.19;;;5.80;100.00
48041;BME280;33815;48.386;11.738;2023-04-01T04:57:30;95308.34;;;5.84;100.00
48041;BME280;33815;48.386;11.738;2023-04-01T04:59:55;95288.16;;;5.61;100.00
48041;BME280;33815;48.386;11.738;2023-04-01T05:02:21;95311.38;;;5.79;100.00
48041;BME280;33815;48.386;11.738;2023-04-01T05:04:46;95310.41;;;5.80;100.00
48041;BME280;33815;48.386;11.738;2023-04-01T05:07:11;95339.19;;;6.04;100.00
48041;BME280;33815;48.386;11.738;2023-04-01T05:09:36;95332.97;;;6.14;100.00
48041;BME280;33815;48.386;11.738;2023-04-01T05:12:02;95341.16;;;6.10;100.00
48041;BME280;33815;48.386;11.738;2023-04-01T05:14:27;95329.81;;;6.03;100.00
48041;BME280;33815;48.386;11.738;2023-04-01T05:16:53;95347.19;;;6.18;100.00
48041;BME280;33815;48.386;11.738;2023-04-01T05:19:19;95318.88;;;6.09;100.00
48041;BME280;33815;48.386;11.738;2023-04-01T05:21:44;95300.72;;;6.00;100.00
48041;BME280;33815;48.386;11.738;2023-04-01T05:24:10;95311.22;;;5.99;100.00
48041;BME280;33815;48.386;11.738;2023-04-01T05:26:35;95314.53;;;6.17;100.00
48041;BME280;33815;48.386;11.738;2023-04-01T05:29:03;95280.19;;;5.99;100.00
48041;BME280;33815;48.386;11.738;2023-04-01T05:31:28;95331.28;;;6.31;100.00
48041;BME280;33815;48.386;11.738;2023-04-01T05:33:54;95335.81;;;6.38;100.00
48041;BME280;33815;48.386;11.738;2023-04-01T05:36:19;95294.81;;;6.16;100.00
48041;BME280;33815;48.386;11.738;2023-04-01T05:38:45;95310.06;;;6.28;100.00
48041;BME280;33815;48.386;11.738;2023-04-01T05:41:14;95338.44;;;6.46;100.00
48041;BME280;33815;48.386;11.738;2023-04-01T05:43:40;95330.22;;;6.50;100.00
48041;BME280;33815;48.386;11.738;2023-04-01T05:46:06;95342.81;;;6.54;100.00
48041;BME280;33815;48.386;11.738;2023-04-01T05:48:32;95295.41;;;6.45;100.00
48041;BME280;33815;48.386;11.738;2023-04-01T05:50:58;95337.28;;;6.75;100.00
48041;BME280;33815;48.386;11.738;2023-04-01T05:53:23;95320.75;;;6.76;100.00
48041;BME280;33815;48.386;11.738;2023-04-01T05:55:48;95290.50;;;6.76;100.00
48041;BME280;33815;48.386;11.738;2023-04-01T05:58:14;95328.25;;;7.03;100.00
48041;BME280;33815;48.386;11.738;2023-04-01T06:00:39;95331.97;;;6.93;100.00
48041;BME280;33815;48.386;11.738;2023-04-01T06:03:04;95333.44;;;7.03;100.00
48041;BME280;33815;48.386;11.738;2023-04-01T06:05:37;95337.34;;;7.08;99.46
48041;BME280;33815;48.386;11.738;2023-04-01T06:08:13;95297.19;;;7.12;98.44
48041;BME280;33815;48.386;11.738;2023-04-01T06:10:43;95329.75;;;7.39;97.18
48041;BME280;33815;48.386;11.738;2023-04-01T06:13:38;95334.94;;;7.39;96.44
48041;BME280;33815;48.386;11.738;2023-04-01T06:16:24;95325.88;;;7.35;96.89
48041;BME280;33815;48.386;11.738;2023-04-01T06:19:01;95351.31;;;7.40;96.02
48041;BME280;33815;48.386;11.738;2023-04-01T06:22:00;95333.97;;;7.40;96.15
48041;BME280;33815;48.386;11.738;2023-04-01T06:32:51;95298.34;;;7.26;94.05
48041;BME280;33815;48.386;11.738;2023-04-01T06:35:38;95320.06;;;7.33;93.81
48041;BME280;33815;48.386;11.738;2023-04-01T06:38:29;95344.84;;;7.44;94.26
48041;BME280;33815;48.386;11.738;2023-04-01T06:43:57;95353.28;;;7.54;92.25
48041;BME280;33815;48.386;11.738;2023-04-01T06:49:29;95335.28;;;7.69;91.89
48041;BME280;33815;48.386;11.738;2023-04-01T06:54:39;95343.69;;;8.04;90.10
48041;BME280;33815;48.386;11.738;2023-04-01T06:57:31;95346.22;;;8.29;89.50
48041;BME280;33815;48.386;11.738;2023-04-01T07:00:03;95348.16;;;8.43;88.72
48041;BME280;33815;48.386;11.738;2023-04-01T07:02:54;95339.88;;;8.48;87.33
48041;BME280;33815;48.386;11.738;2023-04-01T07:05:24;95343.22;;;8.65;85.90
48041;BME280;33815;48.386;11.738;2023-04-01T07:07:53;95334.81;;;8.63;83.30
48041;BME280;33815;48.386;11.738;2023-04-01T07:10:34;95344.28;;;8.47;83.13
48041;BME280;33815;48.386;11.738;2023-04-01T07:13:05;95347.16;;;8.52;84.75
48041;BME280;33815;48.386;11.738;2023-04-01T07:15:38;95345.78;;;8.73;83.43
48041;BME280;33815;48.386;11.738;2023-04-01T07:18:30;95314.66;;;8.65;83.60
48041;BME280;33815;48.386;11.738;2023-04-01T07:20:58;95350.28;;;8.79;82.15
48041;BME280;33815;48.386;11.738;2023-04-01T07:23:39;95350.22;;;8.96;80.81
48041;BME280;33815;48.386;11.738;2023-04-01T07:26:17;95343.97;;;9.13;80.23
48041;BME280;33815;48.386;11.738;2023-04-01T07:28:42;95345.34;;;9.24;79.73
48041;BME280;33815;48.386;11.738;2023-04-01T07:34:19;95357.06;;;9.20;78.11
48041;BME280;33815;48.386;11.738;2023-04-01T07:37:12;95344.53;;;10.08;77.64
48041;BME280;33815;48.386;11.738;2023-04-01T07:39:51;95336.09;;;10.21;73.49
48041;BME280;33815;48.386;11.738;2023-04-01T07:45:11;95351.44;;;10.01;71.94
48041;BME280;33815;48.386;11.738;2023-04-01T07:47:53;95358.78;;;9.59;74.65
48041;BME280;33815;48.386;11.738;2023-04-01T07:50:29;95363.63;;;9.62;73.84
48041;BME280;33815;48.386;11.738;2023-04-01T07:53:07;95356.41;;;9.26;74.45
48041;BME280;33815;48.386;11.738;2023-04-01T07:55:46;95347.00;;;8.94;75.57
48041;BME280;33815;48.386;11.738;2023-04-01T07:58:20;95355.47;;;9.19;75.53
48041;BME280;33815;48.386;11.738;2023-04-01T08:00:58;95366.09;;;9.32;77.57
48041;BME280;33815;48.386;11.738;2023-04-01T08:06:19;95327.72;;;8.88;75.97
48041;BME280;33815;48.386;11.738;2023-04-01T08:11:52;95350.72;;;9.22;76.80
48041;BME280;33815;48.386;11.738;2023-04-01T08:22:45;95353.69;;;9.19;76.06
48041;BME280;33815;48.386;11.738;2023-04-01T08:25:32;95346.69;;;9.43;74.00
48041;BME280;33815;48.386;11.738;2023-04-01T08:30:46;95350.28;;;9.19;72.72
48041;BME280;33815;48.386;11.738;2023-04-01T08:33:24;95336.28;;;9.20;73.43
48041;BME280;33815;48.386;11.738;2023-04-01T08:35:54;95348.47;;;9.42;72.59
48041;BME280;33815;48.386;11.738;2023-04-01T08:38:40;95311.91;;;9.44;73.44
48041;BME280;33815;48.386;11.738;2023-04-01T08:41:19;95347.03;;;10.01;72.50
48041;BME280;33815;48.386;11.738;2023-04-01T08:44:01;95332.75;;;9.97;71.71
48041;BME280;33815;48.386;11.738;2023-04-01T08:52:18;95326.09;;;9.80;71.58
48041;BME280;33815;48.386;11.738;2023-04-01T08:55:04;95326.38;;;10.00;70.78
48041;BME280;33815;48.386;11.738;2023-04-01T08:57:59;95330.19;;;10.12;72.17
48041;BME280;33815;48.386;11.738;2023-04-01T09:00:37;95337.28;;;10.33;71.32
48041;BME280;33815;48.386;11.738;2023-04-01T09:08:46;95327.94;;;10.09;72.33
48041;BME280;33815;48.386;11.738;2023-04-01T09:14:29;95286.44;;;11.04;68.50
48041;BME280;33815;48.386;11.738;2023-04-01T09:23:08;95302.16;;;11.10;65.48
48041;BME280;33815;48.386;11.738;2023-04-01T09:25:45;95314.75;;;11.43;66.26
48041;BME280;33815;48.386;11.738;2023-04-01T09:28:20;95318.06;;;11.16;66.07
48041;BME280;33815;48.386;11.738;2023-04-01T09:31:05;95313.53;;;11.24;65.36
48041;BME280;33815;48.386;11.738;2023-04-01T09:40:08;95316.00;;;10.74;67.58
48041;BME280;33815;48.386;11.738;2023-04-01T09:42:15;95306.91;;;10.85;67.97
48041;BME280;33815;48.386;11.738;2023-04-01T09:45:04;95310.41;;;10.92;66.50
48041;BME280;33815;48.386;11.738;2023-04-01T09:50:41;95312.81;;;10.94;65.84
48041;BME280;33815;48.386;11.738;2023-04-01T09:59:39;95303.97;;;11.31;67.64
48041;BME280;33815;48.386;11.738;2023-04-01T10:17:52;95268.13;;;11.40;64.34
48041;BME280;33815;48.386;11.738;2023-04-01T10:20:18;95275.31;;;11.60;65.44
48041;BME280;33815;48.386;11.738;2023-04-01T10:22:58;95255.34;;;11.45;62.41
48041;BME280;33815;48.386;11.738;2023-04-01T10:39:33;95285.88;;;10.87;70.83
48041;BME280;33815;48.386;11.738;2023-04-01T10:50:29;95290.06;;;10.51;73.43
48041;BME280;33815;48.386;11.738;2023-04-01T11:01:25;95262.47;;;9.97;72.03
48041;BME280;33815;48.386;11.738;2023-04-01T11:07:15;95285.06;;;9.67;77.22
48041;BME280;33815;48.386;11.738;2023-04-01T11:13:07;95298.69;;;9.69;78.10
48041;BME280;33815;48.386;11.738;2023-04-01T11:15:59;95292.63;;;9.76;79.86
48041;BME280;33815;48.386;11.738;2023-04-01T11:29:49;95307.59;;;9.13;90.08
48041;BME280;33815;48.386;11.738;2023-04-01T11:32:43;95299.22;;;9.26;86.27
48041;BME280;33815;48.386;11.738;2023-04-01T11:35:25;95276.88;;;9.08;89.41
48041;BME280;33815;48.386;11.738;2023-04-01T11:43:43;95330.47;;;8.38;90.00
48041;BME280;33815;48.386;11.738;2023-04-01T11:46:16;95343.16;;;8.33;94.67
48041;BME280;33815;48.386;11.738;2023-04-01T11:49:06;95341.19;;;8.35;94.08
48041;BME280;33815;48.386;11.738;2023-04-01T11:52:05;95328.53;;;8.49;96.12
48041;BME280;33815;48.386;11.738;2023-04-01T11:55:05;95343.06;;;8.58;96.88
48041;BME280;33815;48.386;11.738;2023-04-01T12:06:42;95346.63;;;7.51;100.00
48041;BME280;33815;48.386;11.738;2023-04-01T12:12:15;95347.75;;;7.57;100.00
48041;BME280;33815;48.386;11.738;2023-04-01T12:17:34;95353.59;;;7.34;100.00
48041;BME280;33815;48.386;11.738;2023-04-01T12:20:11;95354.41;;;7.27;100.00
48041;BME280;33815;48.386;11.738;2023-04-01T12:23:17;95361.03;;;7.21;100.00
48041;BME280;33815;48.386;11.738;2023-04-01T12:28:48;95354.84;;;7.22;100.00
48041;BME280;33815;48.386;11.738;2023-04-01T12:31:25;95350.66;;;7.29;100.00
48041;BME280;33815;48.386;11.738;2023-04-01T12:37:10;95352.44;;;7.20;100.00
48041;BME280;33815;48.386;11.738;2023-04-01T12:40:01;95349.34;;;7.09;100.00
48041;BME280;33815;48.386;11.738;2023-04-01T12:42:50;95345.47;;;7.29;100.00
48041;BME280;33815;48.386;11.738;2023-04-01T12:45:27;95348.72;;;7.40;100.00
48041;BME280;33815;48.386;11.738;2023-04-01T12:54:02;95349.34;;;7.09;100.00
48041;BME280;33815;48.386;11.738;2023-04-01T12:56:54;95347.03;;;6.89;100.00
48041;BME280;33815;48.386;11.738;2023-04-01T13:02:27;95343.13;;;6.85;100.00
48041;BME280;33815;48.386;11.738;2023-04-01T13:05:13;95339.25;;;6.89;100.00
48041;BME280;33815;48.386;11.738;2023-04-01T13:08:02;95346.69;;;6.92;100.00
48041;BME280;33815;48.386;11.738;2023-04-01T13:10:38;95346.84;;;6.82;100.00
48041;BME280;33815;48.386;11.738;2023-04-01T13:19:15;95352.81;;;6.75;100.00
48041;BME280;33815;48.386;11.738;2023-04-01T13:22:13;95357.50;;;6.79;100.00
48041;BME280;33815;48.386;11.738;2023-04-01T13:24:46;95355.88;;;6.78;100.00
48041;BME280;33815;48.386;11.738;2023-04-01T13:27:29;95319.88;;;6.59;100.00
48041;BME280;33815;48.386;11.738;2023-04-01T13:30:18;95351.69;;;6.85;100.00
48041;BME280;33815;48.386;11.738;2023-04-01T13:33:02;95353.50;;;6.93;100.00
48041;BME280;33815;48.386;11.738;2023-04-01T13:36:05;95355.81;;;7.13;100.00
48041;BME280;33815;48.386;11.738;2023-04-01T13:38:51;95361.34;;;7.26;100.00
48041;BME280;33815;48.386;11.738;2023-04-01T13:43:58;95349.88;;;7.37;100.00
48041;BME280;33815;48.386;11.738;2023-04-01T13:46:40;95349.03;;;7.45;100.00
48041;BME280;33815;48.386;11.738;2023-04-01T13:58:02;95366.41;;;7.69;100.00
48041;BME280;33815;48.386;11.738;2023-04-01T14:00:46;95353.59;;;7.76;100.00
48041;BME280;33815;48.386;11.738;2023-04-01T14:06:14;95347.53;;;8.16;100.00
48041;BME280;33815;48.386;11.738;2023-04-01T14:14:06;95358.13;;;8.06;100.00
48041;BME280;33815;48.386;11.738;2023-04-01T14:16:58;95360.72;;;7.98;100.00
48041;BME280;33815;48.386;11.738;2023-04-01T14:19:56;95356.19;;;7.76;100.00
48041;BME280;33815;48.386;11.738;2023-04-01T14:25:43;95346.16;;;7.56;100.00
48041;BME280;33815;48.386;11.738;2023-04-01T14:28:27;95341.59;;;7.50;100.00
48041;BME280;33815;48.386;11.738;2023-04-01T14:35:09;95360.56;;;7.67;100.00
48041;BME280;33815;48.386;11.738;2023-04-01T14:37:03;95358.13;;;7.74;100.00
48041;BME280;33815;48.386;11.738;2023-04-01T14:45:15;95365.44;;;7.62;100.00
48041;BME280;33815;48.386;11.738;2023-04-01T14:47:54;95368.50;;;7.49;100.00
48041;BME280;33815;48.386;11.738;2023-04-01T14:50:23;95334.28;;;7.29;100.00
48041;BME280;33815;48.386;11.738;2023-04-01T14:52:54;95365.91;;;7.49;100.00
48041;BME280;33815;48.386;11.738;2023-04-01T14:55:29;95355.56;;;7.41;100.00
48041;BME280;33815;48.386;11.738;2023-04-01T14:58:11;95364.94;;;7.25;100.00
48041;BME280;33815;48.386;11.738;2023-04-01T15:01:07;95360.06;;;7.30;100.00
48041;BME280;33815;48.386;11.738;2023-04-01T15:04:13;95381.13;;;7.27;100.00
48041;BME280;33815;48.386;11.738;2023-04-01T15:07:10;95367.66;;;7.24;100.00
48041;BME280;33815;48.386;11.738;2023-04-01T15:12:47;95370.59;;;7.29;100.00
48041;BME280;33815;48.386;11.738;2023-04-01T15:21:24;95373.84;;;7.31;100.00
48041;BME280;33815;48.386;11.738;2023-04-01T15:24:06;95372.72;;;7.50;100.00
48041;BME280;33815;48.386;11.738;2023-04-01T15:27:12;95365.91;;;7.65;100.00
48041;BME280;33815;48.386;11.738;2023-04-01T15:32:43;95371.56;;;8.10;100.00
48041;BME280;33815;48.386;11.738;2023-04-01T15:35:21;95375.94;;;8.18;100.00
48041;BME280;33815;48.386;11.738;2023-04-01T15:37:56;95380.81;;;8.21;100.00
48041;BME280;33815;48.386;11.738;2023-04-01T15:40:29;95372.19;;;8.20;100.00
48041;BME280;33815;48.386;11.738;2023-04-01T15:43:12;95366.22;;;8.12;100.00
48041;BME280;33815;48.386;11.738;2023-04-01T15:45:48;95375.47;;;8.14;100.00
48041;BME280;33815;48.386;11.738;2023-04-01T15:51:01;95391.69;;;7.92;100.00
48041;BME280;33815;48.386;11.738;2023-04-01T15:55:59;95348.75;;;7.48;100.00
48041;BME280;33815;48.386;11.738;2023-04-01T15:58:50;95393.31;;;7.68;100.00
48041;BME280;33815;48.386;11.738;2023-04-01T16:01:38;95391.69;;;7.59;100.00
48041;BME280;33815;48.386;11.738;2023-04-01T16:04:23;95402.19;;;7.49;100.00
48041;BME280;33815;48.386;11.738;2023-04-01T16:15:29;95402.47;;;7.13;100.00
48041;BME280;33815;48.386;11.738;2023-04-01T16:20:46;95409.09;;;7.07;100.00
48041;BME280;33815;48.386;11.738;2023-04-01T16:23:36;95366.91;;;6.80;100.00
48041;BME280;33815;48.386;11.738;2023-04-01T16:26:26;95395.97;;;7.09;100.00
48041;BME280;33815;48.386;11.738;2023-04-01T16:31:48;95401.97;;;7.09;100.00
48041;BME280;33815;48.386;11.738;2023-04-01T16:34:27;95402.75;;;7.10;100.00
48041;BME280;33815;48.386;11.738;2023-04-01T16:37:15;95408.75;;;7.10;100.00
48041;BME280;33815;48.386;11.738;2023-04-01T16:45:43;95389.19;;;7.16;100.00
48041;BME280;33815;48.386;11.738;2023-04-01T16:48:15;95383.97;;;7.08;100.00
48041;BME280;33815;48.386;11.738;2023-04-01T16:51:03;95387.25;;;7.26;100.00
48041;BME280;33815;48.386;11.738;2023-04-01T16:53:40;95393.94;;;7.37;100.00
48041;BME280;33815;48.386;11.738;2023-04-01T16:56:20;95404.94;;;7.39;100.00
48041;BME280;33815;48.386;11.738;2023-04-01T17:04:57;95399.78;;;7.47;100.00
48041;BME280;33815;48.386;11.738;2023-04-01T17:07:41;95410.00;;;7.57;100.00
48041;BME280;33815;48.386;11.738;2023-04-01T17:13:40;95421.19;;;7.58;100.00
48041;BME280;33815;48.386;11.738;2023-04-01T17:16:28;95420.53;;;7.64;100.00
48041;BME280;33815;48.386;11.738;2023-04-01T17:19:09;95419.72;;;7.55;100.00
48041;BME280;33815;48.386;11.738;2023-04-01T17:35:58;95426.22;;;7.67;99.91
48041;BME280;33815;48.386;11.738;2023-04-01T17:41:25;95435.31;;;7.63;100.00
48041;BME280;33815;48.386;11.738;2023-04-01T17:44:02;95424.91;;;7.47;100.00
48041;BME280;33815;48.386;11.738;2023-04-01T17:49:23;95443.88;;;7.64;100.00
48041;BME280;33815;48.386;11.738;2023-04-01T17:52:01;95447.75;;;7.51;100.00
48041;BME280;33815;48.386;11.738;2023-04-01T17:57:39;95458.63;;;7.55;100.00
48041;BME280;33815;48.386;11.738;2023-04-01T18:00:18;95455.19;;;7.54;100.00
48041;BME280;33815;48.386;11.738;2023-04-01T18:03:14;95458.94;;;7.52;100.00
48041;BME280;33815;48.386;11.738;2023-04-01T18:06:03;95470.63;;;7.56;99.39
48041;BME280;33815;48.386;11.738;2023-04-01T18:14:45;95474.34;;;7.62;100.00
48041;BME280;33815;48.386;11.738;2023-04-01T18:20:32;95482.72;;;7.47;100.00
48041;BME280;33815;48.386;11.738;2023-04-01T18:23:23;95483.38;;;7.41;100.00
48041;BME280;33815;48.386;11.738;2023-04-01T18:25:55;95490.34;;;7.49;100.00
48041;BME280;33815;48.386;11.738;2023-04-01T18:36:46;95503.66;;;7.54;99.79
48041;BME280;33815;48.386;11.738;2023-04-01T18:39:17;95504.78;;;7.51;100.00
48041;BME280;33815;48.386;11.738;2023-04-01T18:44:43;95491.25;;;7.23;100.00
48041;BME280;33815;48.386;11.738;2023-04-01T18:47:21;95514.47;;;7.41;100.00
48041;BME280;33815;48.386;11.738;2023-04-01T18:49:55;95518.88;;;7.41;99.19
48041;BME280;33815;48.386;11.738;2023-04-01T18:52:40;95487.69;;;7.24;100.00
48041;BME280;33815;48.386;11.738;2023-04-01T18:57:53;95486.06;;;7.23;100.00